sensor_id;sensor_type;location;lat;lon;timestamp;pressure;altitude;pressure_sealevel;temperature;humidity
56992;BME280;42885;49.754;18.636;2023-06-14T00:02:15;98182.09;;;13.73;100.00
56992;BME280;42885;49.754;18.636;2023-06-14T00:04:46;98177.31;;;13.67;100.00
56992;BME280;42885;49.754;18.636;2023-06-14T00:07:18;98179.61;;;13.47;100.00
56992;BME280;42885;49.754;18.636;2023-06-14T00:09:48;98182.64;;;13.35;100.00
56992;BME280;42885;49.754;18.636;2023-06-14T00:12:19;98183.06;;;13.24;100.00
56992;BME280;42885;49.754;18.636;2023-06-14T00:14:50;98186.30;;;13.27;100.00
56992;BME280;42885;49.754;18.636;2023-06-14T00:17:21;98182.47;;;13.20;100.00
56992;BME280;42885;49.754;18.636;2023-06-14T00:19:52;98185.06;;;12.96;100.00
56992;BME280;42885;49.754;18.636;2023-06-14T00:22:24;98183.83;;;12.70;100.00
56992;BME280;42885;49.754;18.636;2023-06-14T00:24:55;98181.10;;;12.71;100.00
56992;BME280;42885;49.754;18.636;2023-06-14T00:27:26;98181.48;;;12.97;100.00
56992;BME280;42885;49.754;18.636;2023-06-14T00:29:57;98181.56;;;12.89;100.00
56992;BME280;42885;49.754;18.636;2023-06-14T00:32:29;98180.70;;;12.83;100.00
56992;BME280;42885;49.754;18.636;2023-06-14T00:35:00;98174.05;;;12.72;100.00
56992;BME280;42885;49.754;18.636;2023-06-14T00:37:32;98182.48;;;12.64;100.00
56992;BME280;42885;49.754;18.636;2023-06-14T00:40:05;98174.72;;;12.49;100.00
56992;BME280;42885;49.754;18.636;2023-06-14T00:42:36;98179.25;;;12.47;100.00
56992;BME280;42885;49.754;18.636;2023-06-14T00:45:09;98169.33;;;12.32;100.00
56992;BME280;42885;49.754;18.636;2023-06-14T00:47:41;98175.12;;;12.56;100.00
56992;BME280;42885;49.754;18.636;2023-06-14T00:50:14;98170.41;;;12.61;100.00
56992;BME280;42885;49.754;18.636;2023-06-14T00:52:45;98161.34;;;12.47;100.00
56992;BME280;42885;49.754;18.636;2023-06-14T00:55:16;98166.72;;;12.83;100.00
56992;BME280;42885;49.754;18.636;2023-06-14T00:57:47;98167.88;;;12.60;100.00
56992;BME280;42885;49.754;18.636;2023-06-14T01:00:19;98165.14;;;12.43;100.00
56992;BME280;42885;49.754;18.636;2023-06-14T01:02:50;98169.58;;;11.96;100.00
56992;BME280;42885;49.754;18.636;2023-06-14T01:05:21;98173.70;;;11.67;100.00
56992;BME280;42885;49.754;18.636;2023-06-14T01:08:15;98174.22;;;12.05;100.00
56992;BME280;42885;49.754;18.636;2023-06-14T01:10:57;98181.28;;;11.97;100.00
56992;BME280;42885;49.754;18.636;2023-06-14T01:13:36;98176.72;;;11.94;100.00
56992;BME280;42885;49.754;18.636;2023-06-14T01:16:08;98172.95;;;11.78;100.00
56992;BME280;42885;49.754;18.636;2023-06-14T01:18:41;98169.22;;;11.62;100.00
56992;BME280;42885;49.754;18.636;2023-06-14T01:21:24;98168.24;;;11.70;100.00
56992;BME280;42885;49.754;18.636;2023-06-14T01:23:55;98169.56;;;11.83;100.00
56992;BME280;42885;49.754;18.636;2023-06-14T01:26:29;98171.97;;;11.86;100.00
56992;BME280;42885;49.754;18.636;2023-06-14T01:29:02;98176.22;;;11.81;100.00
56992;BME280;42885;49.754;18.636;2023-06-14T01:31:33;98172.39;;;11.67;100.00
56992;BME280;42885;49.754;18.636;2023-06-14T01:34:06;98178.44;;;11.88;100.00
56992;BME280;42885;49.754;18.636;2023-06-14T01:36:38;98170.06;;;12.47;100.00
56992;BME280;42885;49.754;18.636;2023-06-14T01:39:13;98174.19;;;11.59;100.00
56992;BME280;42885;49.754;18.636;2023-06-14T01:41:45;98172.45;;;11.86;100.00
56992;BME280;42885;49.754;18.636;2023-06-14T01:44:18;98173.45;;;11.77;100.00
56992;BME280;42885;49.754;18.636;2023-06-14T01:46:50;98174.54;;;11.80;100.00
56992;BME280;42885;49.754;18.636;2023-06-14T01:49:23;98178.80;;;11.89;100.00
56992;BME280;42885;49.754;18.636;2023-06-14T01:51:54;98176.39;;;11.86;100.00
56992;BME280;42885;49.754;18.636;2023-06-14T01:54:25;98172.86;;;12.13;100.00
56992;BME280;42885;49.754;18.636;2023-06-14T01:56:57;98183.41;;;12.05;100.00
56992;BME280;42885;49.754;18.636;2023-06-14T01:59:28;98184.44;;;11.49;100.00
56992;BME280;42885;49.754;18.636;2023-06-14T02:02:06;98179.98;;;11.44;100.00
56992;BME280;42885;49.754;18.636;2023-06-14T02:04:35;98180.43;;;11.97;100.00
56992;BME280;42885;49.754;18.636;2023-06-14T02:07:06;98180.62;;;11.68;100.00
56992;BME280;42885;49.754;18.636;2023-06-14T02:09:37;98178.00;;;11.68;100.00
56992;BME280;42885;49.754;18.636;2023-06-14T02:12:09;98181.98;;;11.74;100.00
56992;BME280;42885;49.754;18.636;2023-06-14T02:14:40;98184.92;;;11.69;100.00
56992;BME280;42885;49.754;18.636;2023-06-14T02:17:11;98181.53;;;11.34;100.00
56992;BME280;42885;49.754;18.636;2023-06-14T02:19:43;98178.03;;;11.40;100.00
56992;BME280;42885;49.754;18.636;2023-06-14T02:22:14;98177.23;;;11.66;100.00
56992;BME280;42885;49.754;18.636;2023-06-14T02:24:46;98177.96;;;11.75;100.00
56992;BME280;42885;49.754;18.636;2023-06-14T02:27:17;98175.89;;;11.73;100.00
56992;BME280;42885;49.754;18.636;2023-06-14T02:29:48;98174.27;;;12.11;100.00
56992;BME280;42885;49.754;18.636;2023-06-14T02:32:19;98181.38;;;11.96;100.00
56992;BME280;42885;49.754;18.636;2023-06-14T02:34:49;98175.90;;;12.06;100.00
56992;BME280;42885;49.754;18.636;2023-06-14T02:37:21;98174.77;;;12.10;100.00
56992;BME280;42885;49.754;18.636;2023-06-14T02:39:52;98172.33;;;12.46;100.00
56992;BME280;42885;49.754;18.636;2023-06-14T02:42:23;98171.07;;;12.39;100.00
56992;BME280;42885;49.754;18.636;2023-06-14T02:44:54;98171.33;;;12.03;100.00
56992;BME280;42885;49.754;18.636;2023-06-14T02:47:25;98172.47;;;11.98;100.00
56992;BME280;42885;49.754;18.636;2023-06-14T02:49:56;98181.36;;;12.03;100.00
56992;BME280;42885;49.754;18.636;2023-06-14T02:52:28;98181.46;;;11.81;100.00
56992;BME280;42885;49.754;18.636;2023-06-14T02:54:59;98177.80;;;12.04;100.00
56992;BME280;42885;49.754;18.636;2023-06-14T02:57:30;98171.98;;;11.99;100.00
56992;BME280;42885;49.754;18.636;2023-06-14T03:00:01;98177.05;;;11.69;100.00
56992;BME280;42885;49.754;18.636;2023-06-14T03:02:34;98173.36;;;11.79;100.00
56992;BME280;42885;49.754;18.636;2023-06-14T03:05:05;98171.02;;;12.07;100.00
56992;BME280;42885;49.754;18.636;2023-06-14T03:07:37;98179.70;;;11.95;100.00
56992;BME280;42885;49.754;18.636;2023-06-14T03:10:10;98176.67;;;12.01;100.00
56992;BME280;42885;49.754;18.636;2023-06-14T03:12:43;98177.02;;;11.76;100.00
56992;BME280;42885;49.754;18.636;2023-06-14T03:15:15;98180.06;;;11.96;100.00
56992;BME280;42885;49.754;18.636;2023-06-14T03:17:49;98178.03;;;11.94;100.00
56992;BME280;42885;49.754;18.636;2023-06-14T03:20:20;98181.25;;;11.72;100.00
56992;BME280;42885;49.754;18.636;2023-06-14T03:22:52;98174.50;;;11.54;100.00
56992;BME280;42885;49.754;18.636;2023-06-14T03:25:23;98179.02;;;11.52;100.00
56992;BME280;42885;49.754;18.636;2023-06-14T03:27:56;98180.19;;;11.74;100.00
56992;BME280;42885;49.754;18.636;2023-06-14T03:30:29;98182.73;;;11.89;100.00
56992;BME280;42885;49.754;18.636;2023-06-14T03:33:00;98175.91;;;11.86;100.00
56992;BME280;42885;49.754;18.636;2023-06-14T03:35:31;98180.70;;;12.00;100.00
56992;BME280;42885;49.754;18.636;2023-06-14T03:38:03;98177.33;;;12.18;100.00
56992;BME280;42885;49.754;18.636;2023-06-14T03:40:34;98177.84;;;11.90;100.00
56992;BME280;42885;49.754;18.636;2023-06-14T03:43:06;98185.57;;;11.86;100.00
56992;BME280;42885;49.754;18.636;2023-06-14T03:45:37;98187.33;;;11.52;100.00
56992;BME280;42885;49.754;18.636;2023-06-14T03:48:09;98190.12;;;11.76;100.00
56992;BME280;42885;49.754;18.636;2023-06-14T03:50:40;98188.14;;;11.80;100.00
56992;BME280;42885;49.754;18.636;2023-06-14T03:53:12;98194.34;;;11.92;100.00
56992;BME280;42885;49.754;18.636;2023-06-14T03:55:43;98196.44;;;12.00;100.00
56992;BME280;42885;49.754;18.636;2023-06-14T03:58:15;98192.71;;;12.04;100.00
56992;BME280;42885;49.754;18.636;2023-06-14T04:00:48;98201.05;;;11.96;100.00
56992;BME280;42885;49.754;18.636;2023-06-14T04:03:19;98200.61;;;11.76;100.00
56992;BME280;42885;49.754;18.636;2023-06-14T04:05:51;98204.88;;;12.05;100.00
56992;BME280;42885;49.754;18.636;2023-06-14T04:08:24;98199.82;;;12.28;100.00
56992;BME280;42885;49.754;18.636;2023-06-14T04:10:56;98206.92;;;12.20;100.00
56992;BME280;42885;49.754;18.636;2023-06-14T04:13:27;98206.02;;;12.39;100.00
56992;BME280;42885;49.754;18.636;2023-06-14T04:15:58;98205.56;;;12.27;100.00
56992;BME280;42885;49.754;18.636;2023-06-14T04:18:30;98213.72;;;12.61;100.00
56992;BME280;42885;49.754;18.636;2023-06-14T04:21:01;98215.34;;;12.70;100.00
56992;BME280;42885;49.754;18.636;2023-06-14T04:23:33;98214.38;;;12.71;100.00
56992;BME280;42885;49.754;18.636;2023-06-14T04:26:04;98216.69;;;12.75;100.00
56992;BME280;42885;49.754;18.636;2023-06-14T04:28:35;98216.72;;;12.81;100.00
56992;BME280;42885;49.754;18.636;2023-06-14T04:31:08;98211.15;;;12.54;100.00
56992;BME280;42885;49.754;18.636;2023-06-14T04:33:39;98216.42;;;12.73;100.00
56992;BME280;42885;49.754;18.636;2023-06-14T04:36:12;98210.12;;;12.94;100.00
56992;BME280;42885;49.754;18.636;2023-06-14T04:38:43;98216.22;;;13.13;100.00
56992;BME280;42885;49.754;18.636;2023-06-14T04:41:16;98211.47;;;12.81;100.00
56992;BME280;42885;49.754;18.636;2023-06-14T04:43:49;98210.80;;;13.03;100.00
56992;BME280;42885;49.754;18.636;2023-06-14T04:46:22;98211.61;;;13.22;100.00
56992;BME280;42885;49.754;18.636;2023-06-14T04:48:54;98209.95;;;12.84;100.00
56992;BME280;42885;49.754;18.636;2023-06-14T04:51:25;98204.02;;;12.88;100.00
56992;BME280;42885;49.754;18.636;2023-06-14T04:53:57;98211.20;;;12.91;100.00
56992;BME280;42885;49.754;18.636;2023-06-14T04:56:30;98211.52;;;13.30;100.00
56992;BME280;42885;49.754;18.636;2023-06-14T04:59:01;98219.21;;;13.33;100.00
56992;BME280;42885;49.754;18.636;2023-06-14T05:01:34;98215.19;;;13.21;100.00
56992;BME280;42885;49.754;18.636;2023-06-14T05:04:07;98217.06;;;13.38;100.00
56992;BME280;42885;49.754;18.636;2023-06-14T05:06:38;98218.30;;;13.21;100.00
56992;BME280;42885;49.754;18.636;2023-06-14T05:09:09;98220.84;;;13.10;100.00
56992;BME280;42885;49.754;18.636;2023-06-14T05:11:41;98229.41;;;13.43;100.00
56992;BME280;42885;49.754;18.636;2023-06-14T05:14:15;98231.47;;;13.27;100.00
56992;BME280;42885;49.754;18.636;2023-06-14T05:16:48;98235.55;;;13.31;100.00
56992;BME280;42885;49.754;18.636;2023-06-14T05:19:20;98233.64;;;13.46;100.00
56992;BME280;42885;49.754;18.636;2023-06-14T05:21:51;98240.26;;;13.39;100.00
56992;BME280;42885;49.754;18.636;2023-06-14T05:24:23;98239.52;;;13.49;100.00
56992;BME280;42885;49.754;18.636;2023-06-14T05:26:54;98237.64;;;13.63;100.00
56992;BME280;42885;49.754;18.636;2023-06-14T05:29:25;98240.95;;;13.78;100.00
56992;BME280;42885;49.754;18.636;2023-06-14T05:31:57;98248.41;;;13.66;100.00
56992;BME280;42885;49.754;18.636;2023-06-14T05:34:28;98242.42;;;13.58;100.00
56992;BME280;42885;49.754;18.636;2023-06-14T05:36:59;98242.88;;;13.57;100.00
56992;BME280;42885;49.754;18.636;2023-06-14T05:39:30;98243.06;;;13.30;100.00
56992;BME280;42885;49.754;18.636;2023-06-14T05:42:01;98240.09;;;13.78;100.00
56992;BME280;42885;49.754;18.636;2023-06-14T05:44:32;98244.09;;;13.59;100.00
56992;BME280;42885;49.754;18.636;2023-06-14T05:47:03;98247.72;;;14.05;100.00
56992;BME280;42885;49.754;18.636;2023-06-14T05:49:34;98243.94;;;14.21;100.00
56992;BME280;42885;49.754;18.636;2023-06-14T05:52:07;98246.23;;;13.89;100.00
56992;BME280;42885;49.754;18.636;2023-06-14T05:54:38;98250.36;;;14.11;100.00
56992;BME280;42885;49.754;18.636;2023-06-14T05:57:10;98250.13;;;14.14;100.00
56992;BME280;42885;49.754;18.636;2023-06-14T05:59:41;98255.53;;;14.24;100.00
56992;BME280;42885;49.754;18.636;2023-06-14T06:02:12;98246.88;;;14.04;100.00
56992;BME280;42885;49.754;18.636;2023-06-14T06:04:43;98245.53;;;14.63;100.00
56992;BME280;42885;49.754;18.636;2023-06-14T06:07:15;98241.83;;;14.71;100.00
56992;BME280;42885;49.754;18.636;2023-06-14T06:09:46;98243.97;;;15.18;100.00
56992;BME280;42885;49.754;18.636;2023-06-14T06:12:17;98236.50;;;15.34;100.00
56992;BME280;42885;49.754;18.636;2023-06-14T06:14:48;98248.37;;;15.28;100.00
56992;BME280;42885;49.754;18.636;2023-06-14T06:17:19;98246.71;;;15.16;100.00
56992;BME280;42885;49.754;18.636;2023-06-14T06:19:50;98245.98;;;15.20;100.00
56992;BME280;42885;49.754;18.636;2023-06-14T06:22:22;98249.33;;;15.22;100.00
56992;BME280;42885;49.754;18.636;2023-06-14T06:24:52;98253.19;;;15.18;100.00
56992;BME280;42885;49.754;18.636;2023-06-14T06:27:23;98254.52;;;15.56;100.00
56992;BME280;42885;49.754;18.636;2023-06-14T06:29:55;98258.16;;;15.44;100.00
56992;BME280;42885;49.754;18.636;2023-06-14T06:32:26;98260.07;;;15.47;100.00
56992;BME280;42885;49.754;18.636;2023-06-14T06:34:57;98264.84;;;15.48;100.00
56992;BME280;42885;49.754;18.636;2023-06-14T06:37:29;98261.39;;;15.47;100.00
56992;BME280;42885;49.754;18.636;2023-06-14T06:40:00;98263.60;;;15.63;100.00
56992;BME280;42885;49.754;18.636;2023-06-14T06:42:32;98270.72;;;15.57;100.00
56992;BME280;42885;49.754;18.636;2023-06-14T06:45:04;98275.09;;;15.68;100.00
56992;BME280;42885;49.754;18.636;2023-06-14T06:47:35;98277.47;;;16.68;100.00
56992;BME280;42885;49.754;18.636;2023-06-14T06:50:07;98276.69;;;15.98;100.00
56992;BME280;42885;49.754;18.636;2023-06-14T06:52:38;98280.41;;;16.01;100.00
56992;BME280;42885;49.754;18.636;2023-06-14T06:55:09;98279.92;;;16.22;100.00
56992;BME280;42885;49.754;18.636;2023-06-14T06:57:41;98272.57;;;16.32;100.00
56992;BME280;42885;49.754;18.636;2023-06-14T07:00:12;98272.57;;;16.32;100.00
56992;BME280;42885;49.754;18.636;2023-06-14T07:02:43;98285.63;;;16.33;100.00
56992;BME280;42885;49.754;18.636;2023-06-14T07:05:15;98275.92;;;16.81;100.00
56992;BME280;42885;49.754;18.636;2023-06-14T07:07:46;98282.88;;;16.97;100.00
56992;BME280;42885;49.754;18.636;2023-06-14T07:10:17;98285.33;;;17.36;100.00
56992;BME280;42885;49.754;18.636;2023-06-14T07:12:48;98287.09;;;17.15;100.00
56992;BME280;42885;49.754;18.636;2023-06-14T07:15:19;98284.20;;;16.97;100.00
56992;BME280;42885;49.754;18.636;2023-06-14T07:17:52;98289.27;;;17.26;100.00
56992;BME280;42885;49.754;18.636;2023-06-14T07:20:23;98295.74;;;17.63;100.00
56992;BME280;42885;49.754;18.636;2023-06-14T07:22:54;98288.32;;;17.27;100.00
56992;BME280;42885;49.754;18.636;2023-06-14T07:25:25;98282.27;;;17.40;100.00
56992;BME280;42885;49.754;18.636;2023-06-14T07:27:56;98289.13;;;17.63;100.00
56992;BME280;42885;49.754;18.636;2023-06-14T07:30:27;98287.97;;;17.36;100.00
56992;BME280;42885;49.754;18.636;2023-06-14T07:32:59;98289.95;;;17.53;100.00
56992;BME280;42885;49.754;18.636;2023-06-14T07:35:30;98285.52;;;17.28;100.00
56992;BME280;42885;49.754;18.636;2023-06-14T07:38:01;98288.27;;;16.86;100.00
56992;BME280;42885;49.754;18.636;2023-06-14T07:40:32;98288.34;;;17.11;100.00
56992;BME280;42885;49.754;18.636;2023-06-14T07:43:03;98286.80;;;17.09;100.00
56992;BME280;42885;49.754;18.636;2023-06-14T07:45:34;98291.01;;;17.05;100.00
56992;BME280;42885;49.754;18.636;2023-06-14T07:48:05;98287.78;;;17.43;100.00
56992;BME280;42885;49.754;18.636;2023-06-14T07:50:36;98287.78;;;17.43;100.00
56992;BME280;42885;49.754;18.636;2023-06-14T07:53:07;98288.95;;;16.78;100.00
56992;BME280;42885;49.754;18.636;2023-06-14T07:55:38;98284.51;;;17.35;100.00
56992;BME280;42885;49.754;18.636;2023-06-14T07:58:11;98285.92;;;17.49;100.00
56992;BME280;42885;49.754;18.636;2023-06-14T08:00:42;98285.08;;;17.48;100.00
56992;BME280;42885;49.754;18.636;2023-06-14T08:03:13;98287.74;;;17.58;100.00
56992;BME280;42885;49.754;18.636;2023-06-14T08:05:44;98283.85;;;17.72;100.00
56992;BME280;42885;49.754;18.636;2023-06-14T08:08:15;98285.25;;;17.96;100.00
56992;BME280;42885;49.754;18.636;2023-06-14T08:10:46;98280.30;;;18.37;100.00
56992;BME280;42885;49.754;18.636;2023-06-14T08:13:17;98286.63;;;18.40;100.00
56992;BME280;42885;49.754;18.636;2023-06-14T08:15:48;98285.00;;;18.19;100.00
56992;BME280;42885;49.754;18.636;2023-06-14T08:18:20;98284.15;;;18.19;100.00
56992;BME280;42885;49.754;18.636;2023-06-14T08:20:51;98285.60;;;18.27;97.18
56992;BME280;42885;49.754;18.636;2023-06-14T08:23:22;98287.77;;;18.27;95.42
56992;BME280;42885;49.754;18.636;2023-06-14T08:25:53;98285.68;;;18.31;97.21
56992;BME280;42885;49.754;18.636;2023-06-14T08:28:24;98282.52;;;18.41;95.65
56992;BME280;42885;49.754;18.636;2023-06-14T08:30:55;98288.66;;;18.80;94.25
56992;BME280;42885;49.754;18.636;2023-06-14T08:33:26;98290.29;;;18.77;95.57
56992;BME280;42885;49.754;18.636;2023-06-14T08:35:57;98289.92;;;18.85;95.26
56992;BME280;42885;49.754;18.636;2023-06-14T08:38:28;98289.52;;;18.94;96.53
56992;BME280;42885;49.754;18.636;2023-06-14T08:41:01;98295.66;;;18.57;98.15
56992;BME280;42885;49.754;18.636;2023-06-14T08:43:33;98304.75;;;18.92;97.59
56992;BME280;42885;49.754;18.636;2023-06-14T08:46:07;98297.91;;;18.76;97.12
56992;BME280;42885;49.754;18.636;2023-06-14T08:48:39;98298.12;;;18.92;94.28
56992;BME280;42885;49.754;18.636;2023-06-14T08:51:11;98296.99;;;18.81;96.08
56992;BME280;42885;49.754;18.636;2023-06-14T08:53:45;98290.27;;;18.87;97.13
56992;BME280;42885;49.754;18.636;2023-06-14T08:56:17;98292.08;;;19.10;91.87
56992;BME280;42885;49.754;18.636;2023-06-14T08:58:49;98285.73;;;19.35;87.98
56992;BME280;42885;49.754;18.636;2023-06-14T09:01:20;98279.66;;;19.93;88.88
56992;BME280;42885;49.754;18.636;2023-06-14T09:03:51;98289.52;;;19.18;89.71
56992;BME280;42885;49.754;18.636;2023-06-14T09:06:24;98283.23;;;19.84;87.38
56992;BME280;42885;49.754;18.636;2023-06-14T09:08:56;98282.66;;;19.58;89.62
56992;BME280;42885;49.754;18.636;2023-06-14T09:11:27;98291.14;;;19.79;86.85
56992;BME280;42885;49.754;18.636;2023-06-14T09:13:58;98292.07;;;20.47;82.26
56992;BME280;42885;49.754;18.636;2023-06-14T09:16:32;98289.64;;;20.09;83.09
56992;BME280;42885;49.754;18.636;2023-06-14T09:19:03;98303.31;;;20.41;81.04
56992;BME280;42885;49.754;18.636;2023-06-14T09:21:34;98293.24;;;19.72;83.91
56992;BME280;42885;49.754;18.636;2023-06-14T09:24:13;98293.59;;;19.91;83.76
56992;BME280;42885;49.754;18.636;2023-06-14T09:26:42;98292.94;;;19.93;84.33
56992;BME280;42885;49.754;18.636;2023-06-14T09:29:13;98294.83;;;19.97;86.53
56992;BME280;42885;49.754;18.636;2023-06-14T09:31:49;98302.14;;;20.17;88.12
56992;BME280;42885;49.754;18.636;2023-06-14T09:34:21;98296.50;;;20.20;80.82
56992;BME280;42885;49.754;18.636;2023-06-14T09:36:53;98292.74;;;19.90;81.96
56992;BME280;42885;49.754;18.636;2023-06-14T09:39:24;98298.66;;;20.39;81.77
56992;BME280;42885;49.754;18.636;2023-06-14T09:41:57;98299.80;;;20.36;83.59
56992;BME280;42885;49.754;18.636;2023-06-14T09:44:28;98295.34;;;20.41;79.07
56992;BME280;42885;49.754;18.636;2023-06-14T09:46:59;98298.88;;;20.49;78.71
56992;BME280;42885;49.754;18.636;2023-06-14T09:49:30;98294.36;;;20.46;76.55
56992;BME280;42885;49.754;18.636;2023-06-14T09:52:02;98291.98;;;20.61;78.02
56992;BME280;42885;49.754;18.636;2023-06-14T09:54:35;98298.39;;;20.76;77.40
56992;BME280;42885;49.754;18.636;2023-06-14T09:57:15;98298.50;;;20.67;78.43
56992;BME280;42885;49.754;18.636;2023-06-14T09:59:43;98296.79;;;20.61;77.38
56992;BME280;42885;49.754;18.636;2023-06-14T10:02:29;98292.48;;;20.87;76.69
56992;BME280;42885;49.754;18.636;2023-06-14T10:05:07;98302.86;;;20.72;78.38
56992;BME280;42885;49.754;18.636;2023-06-14T10:07:48;98291.42;;;21.10;75.89
56992;BME280;42885;49.754;18.636;2023-06-14T10:10:17;98296.14;;;21.29;74.02
56992;BME280;42885;49.754;18.636;2023-06-14T10:12:48;98285.83;;;21.22;75.02
56992;BME280;42885;49.754;18.636;2023-06-14T10:16:10;98283.98;;;21.18;74.46
56992;BME280;42885;49.754;18.636;2023-06-14T10:18:02;98286.25;;;21.56;75.48
56992;BME280;42885;49.754;18.636;2023-06-14T10:20:39;98286.03;;;21.41;76.62
56992;BME280;42885;49.754;18.636;2023-06-14T10:23:18;98282.53;;;21.32;75.07
56992;BME280;42885;49.754;18.636;2023-06-14T10:25:59;98284.59;;;21.55;74.90
56992;BME280;42885;49.754;18.636;2023-06-14T10:28:30;98275.43;;;21.66;71.28
56992;BME280;42885;49.754;18.636;2023-06-14T10:31:11;98279.76;;;21.50;71.77
56992;BME280;42885;49.754;18.636;2023-06-14T10:33:50;98272.32;;;22.33;69.61
56992;BME280;42885;49.754;18.636;2023-06-14T10:36:30;98264.17;;;21.21;72.13
56992;BME280;42885;49.754;18.636;2023-06-14T10:39:14;98274.34;;;21.81;72.75
56992;BME280;42885;49.754;18.636;2023-06-14T10:41:51;98265.02;;;22.14;68.76
56992;BME280;42885;49.754;18.636;2023-06-14T10:46:59;98259.17;;;23.00;66.99
56992;BME280;42885;49.754;18.636;2023-06-14T10:49:43;98264.98;;;23.44;61.48
56992;BME280;42885;49.754;18.636;2023-06-14T10:52:15;98257.70;;;23.37;61.01
56992;BME280;42885;49.754;18.636;2023-06-14T10:57:37;98259.28;;;22.71;65.69
56992;BME280;42885;49.754;18.636;2023-06-14T11:00:10;98258.67;;;22.23;64.06
56992;BME280;42885;49.754;18.636;2023-06-14T11:03:03;98256.67;;;21.76;67.10
56992;BME280;42885;49.754;18.636;2023-06-14T11:05:26;98253.08;;;22.83;64.95
56992;BME280;42885;49.754;18.636;2023-06-14T11:08:20;98251.90;;;23.53;61.10
56992;BME280;42885;49.754;18.636;2023-06-14T11:10:44;98260.73;;;22.86;59.55
56992;BME280;42885;49.754;18.636;2023-06-14T11:13:18;98250.48;;;23.42;61.15
56992;BME280;42885;49.754;18.636;2023-06-14T11:15:50;98252.66;;;24.13;56.57
56992;BME280;42885;49.754;18.636;2023-06-14T11:18:22;98247.44;;;23.49;55.54
56992;BME280;42885;49.754;18.636;2023-06-14T11:20:57;98247.44;;;23.49;55.54
56992;BME280;42885;49.754;18.636;2023-06-14T11:23:28;98259.88;;;22.86;58.66
56992;BME280;42885;49.754;18.636;2023-06-14T11:26:00;98252.67;;;23.85;55.98
56992;BME280;42885;49.754;18.636;2023-06-14T11:28:38;98250.97;;;24.16;54.42
56992;BME280;42885;49.754;18.636;2023-06-14T11:31:10;98254.52;;;23.61;55.11
56992;BME280;42885;49.754;18.636;2023-06-14T11:33:41;98242.22;;;23.56;55.94
56992;BME280;42885;49.754;18.636;2023-06-14T11:36:12;98242.83;;;22.99;60.60
56992;BME280;42885;49.754;18.636;2023-06-14T11:38:43;98249.20;;;22.86;59.76
56992;BME280;42885;49.754;18.636;2023-06-14T11:41:14;98256.70;;;22.13;64.17
56992;BME280;42885;49.754;18.636;2023-06-14T11:43:45;98245.67;;;22.24;65.74
56992;BME280;42885;49.754;18.636;2023-06-14T11:46:16;98241.26;;;23.49;55.24
56992;BME280;42885;49.754;18.636;2023-06-14T11:48:49;98237.80;;;24.29;52.67
56992;BME280;42885;49.754;18.636;2023-06-14T11:51:20;98229.66;;;24.03;51.29
56992;BME280;42885;49.754;18.636;2023-06-14T11:53:51;98237.20;;;23.30;53.23
56992;BME280;42885;49.754;18.636;2023-06-14T11:56:22;98242.16;;;22.24;55.54
56992;BME280;42885;49.754;18.636;2023-06-14T11:58:53;98233.48;;;22.38;57.04
56992;BME280;42885;49.754;18.636;2023-06-14T12:01:26;98231.97;;;22.44;59.05
56992;BME280;42885;49.754;18.636;2023-06-14T12:03:57;98226.14;;;23.60;54.19
56992;BME280;42885;49.754;18.636;2023-06-14T12:06:30;98220.74;;;24.75;49.72
56992;BME280;42885;49.754;18.636;2023-06-14T12:09:07;98213.73;;;24.74;47.91
56992;BME280;42885;49.754;18.636;2023-06-14T12:11:40;98220.80;;;24.41;48.06
56992;BME280;42885;49.754;18.636;2023-06-14T12:14:11;98214.91;;;24.12;50.29
56992;BME280;42885;49.754;18.636;2023-06-14T12:16:42;98217.30;;;23.28;52.21
56992;BME280;42885;49.754;18.636;2023-06-14T12:19:14;98218.86;;;22.87;57.04
56992;BME280;42885;49.754;18.636;2023-06-14T12:21:48;98224.96;;;22.64;56.90
56992;BME280;42885;49.754;18.636;2023-06-14T12:24:21;98218.28;;;23.08;55.44
56992;BME280;42885;49.754;18.636;2023-06-14T12:26:54;98210.23;;;24.44;51.80
56992;BME280;42885;49.754;18.636;2023-06-14T12:29:25;98203.92;;;24.56;50.44
56992;BME280;42885;49.754;18.636;2023-06-14T12:31:56;98189.97;;;24.80;47.29
56992;BME280;42885;49.754;18.636;2023-06-14T12:34:27;98209.45;;;25.69;45.61
56992;BME280;42885;49.754;18.636;2023-06-14T12:36:58;98202.94;;;24.53;44.11
56992;BME280;42885;49.754;18.636;2023-06-14T12:39:29;98210.52;;;23.96;46.90
56992;BME280;42885;49.754;18.636;2023-06-14T12:42:02;98210.28;;;24.05;48.00
56992;BME280;42885;49.754;18.636;2023-06-14T12:44:33;98208.11;;;23.82;47.55
56992;BME280;42885;49.754;18.636;2023-06-14T12:47:05;98205.17;;;23.26;48.62
56992;BME280;42885;49.754;18.636;2023-06-14T12:49:38;98202.75;;;25.91;47.42
56992;BME280;42885;49.754;18.636;2023-06-14T12:52:10;98198.84;;;26.04;45.92
56992;BME280;42885;49.754;18.636;2023-06-14T12:54:41;98197.33;;;23.94;44.64
56992;BME280;42885;49.754;18.636;2023-06-14T12:57:12;98201.49;;;23.97;46.28
56992;BME280;42885;49.754;18.636;2023-06-14T12:59:42;98192.95;;;25.07;45.53
56992;BME280;42885;49.754;18.636;2023-06-14T13:02:15;98194.84;;;25.82;43.55
56992;BME280;42885;49.754;18.636;2023-06-14T13:04:46;98195.91;;;25.88;42.34
56992;BME280;42885;49.754;18.636;2023-06-14T13:07:17;98194.25;;;25.98;41.76
56992;BME280;42885;49.754;18.636;2023-06-14T13:09:48;98188.34;;;26.20;40.05
56992;BME280;42885;49.754;18.636;2023-06-14T13:12:19;98192.30;;;26.60;41.88
56992;BME280;42885;49.754;18.636;2023-06-14T13:14:50;98185.97;;;27.30;41.02